Time;durP1;ratioP1;P1;durP2;ratioP2;P2;SDS_P1;SDS_P2;PMS_P1;PMS_P2;Temp;Humidity;BMP_temperature;BMP_pressure;BME280_temperature;BME280_humidity;BME280_pressure;Samples;Min_cycle;Max_cycle;Signal;HPM_P1;HPM_P2
2022/08/16 00:02:01;;;;;;;6.10;2.50;;;;;;;21.48;61.90;99829.88;4178487;28;20079;-66
2022/08/16 00:04:15;;;;;;;3.92;2.45;;;;;;;;;;4174212;28;20125;-65
2022/08/16 00:06:17;;;;;;;10.45;3.38;;;;;;;21.51;61.71;99840.38;4163087;28;20050;-67
2022/08/16 00:08:21;;;;;;;5.07;2.35;;;;;;;21.57;61.46;99838.34;4164571;28;20072;-65
2022/08/16 00:10:39;;;;;;;3.55;2.53;;;;;;;21.59;61.60;99833.84;4169496;28;20049;-64
2022/08/16 00:12:43;;;;;;;5.15;2.85;;;;;;;21.54;61.45;99832.34;4170287;28;20034;-65
2022/08/16 00:14:46;;;;;;;4.30;2.50;;;;;;;21.67;60.84;99833.53;4174292;28;20045;-66
2022/08/16 00:16:50;;;;;;;4.72;2.20;;;;;;;21.71;60.77;99839.56;4165252;28;20330;-66
2022/08/16 00:19:15;;;;;;;5.05;2.30;;;;;;;21.73;60.75;99843.88;4163527;28;20084;-68
2022/08/16 00:21:18;;;;;;;7.03;2.83;;;;;;;21.79;60.69;99846.25;4149842;28;20042;-65
2022/08/16 00:23:24;;;;;;;3.28;2.45;;;;;;;21.76;60.71;99856.09;4163733;28;20049;-64
2022/08/16 00:25:42;;;;;;;3.28;2.40;;;;;;;21.72;60.99;99854.50;4164175;28;20029;-64
2022/08/16 00:28:05;;;;;;;6.95;2.90;;;;;;;21.68;60.89;99855.56;4155012;28;20044;-64
2022/08/16 00:30:12;;;;;;;4.03;2.08;;;;;;;21.64;61.00;99857.47;4146231;28;20124;-63
2022/08/16 00:32:30;;;;;;;5.57;2.20;;;;;;;21.64;60.94;99860.13;4163524;28;20044;-64
2022/08/16 00:34:37;;;;;;;3.15;2.35;;;;;;;21.68;60.71;99858.19;4166521;28;20068;-63
2022/08/16 00:36:47;;;;;;;3.58;2.20;;;;;;;21.75;60.48;99846.44;4169547;28;20053;-63
2022/08/16 00:38:57;;;;;;;3.20;2.58;;;;;;;21.79;60.42;99851.53;4161372;28;20069;-64
2022/08/16 00:41:03;;;;;;;3.40;2.28;;;;;;;21.78;60.29;99851.59;4163856;28;20060;-64
2022/08/16 00:43:10;;;;;;;4.78;2.63;;;;;;;21.71;60.49;99851.00;4153678;28;20049;-64
2022/08/16 00:45:32;;;;;;;2.60;1.92;;;;;;;21.63;60.64;99850.47;4177908;28;20049;-63
2022/08/16 00:47:44;;;;;;;2.53;2.10;;;;;;;21.58;60.84;99850.66;4167435;28;20041;-63
2022/08/16 00:49:53;;;;;;;3.13;2.28;;;;;;;21.50;60.75;99854.50;4162324;28;20401;-63
2022/08/16 00:51:59;;;;;;;3.33;2.88;;;;;;;21.48;61.17;99851.03;4163386;28;20056;-64
2022/08/16 00:54:02;;;;;;;3.40;2.50;;;;;;;21.38;61.41;99847.94;4167425;28;20136;-63
2022/08/16 00:56:14;;;;;;;5.68;3.13;;;;;;;21.34;61.73;99852.47;4173367;28;20050;-64
2022/08/16 00:58:39;;;;;;;3.35;2.28;;;;;;;21.22;61.86;99856.47;4164517;28;20503;-63
2022/08/16 01:00:46;;;;;;;3.20;2.20;;;;;;;21.25;61.87;99848.41;4173147;28;20037;-63
2022/08/16 01:02:57;;;;;;;4.93;2.88;;;;;;;21.27;61.82;99851.00;4161997;28;20068;-64
2022/08/16 01:05:02;;;;;;;2.80;2.13;;;;;;;21.26;61.72;99851.91;4156403;28;20034;-63
2022/08/16 01:07:13;;;;;;;4.50;2.95;;;;;;;21.26;61.83;99850.16;4166124;28;20411;-64
2022/08/16 01:09:20;;;;;;;3.05;2.60;;;;;;;21.10;62.28;99856.97;4170832;28;20037;-63
2022/08/16 01:11:25;;;;;;;4.38;2.85;;;;;;;21.02;62.45;99859.03;4167523;28;20071;-63
2022/08/16 01:13:35;;;;;;;4.93;2.90;;;;;;;21.12;62.21;99862.19;4153313;28;20065;-63
2022/08/16 01:15:43;;;;;;;3.80;2.33;;;;;;;21.04;62.16;99865.09;4177948;28;20041;-63
2022/08/16 01:17:47;;;;;;;3.58;2.20;;;;;;;21.02;62.46;99866.97;4156652;28;20068;-64
2022/08/16 01:20:03;;;;;;;5.15;3.47;;;;;;;20.98;62.61;99870.63;4173784;28;20124;-64
2022/08/16 01:22:35;;;;;;;4.90;2.58;;;;;;;20.96;62.64;99870.69;4164853;28;20060;-64
2022/08/16 01:24:55;;;;;;;;;;;;;;;20.78;63.05;99867.00;4169023;28;20499;-64
2022/08/16 01:27:05;;;;;;;3.97;2.58;;;;;;;20.74;63.17;99865.38;4159069;28;19932;-64
2022/08/16 01:29:18;;;;;;;6.93;2.90;;;;;;;20.78;63.12;99867.00;4162252;28;20522;-64
2022/08/16 01:31:41;;;;;;;4.80;2.50;;;;;;;20.88;62.97;99868.34;4173748;28;20549;-64
2022/08/16 01:33:47;;;;;;;4.65;2.35;;;;;;;21.02;62.68;99867.81;4161709;28;20050;-64
2022/08/16 01:35:56;;;;;;;4.10;2.38;;;;;;;21.08;62.38;99864.06;4162977;28;20042;-64
2022/08/16 01:38:17;;;;;;;5.60;2.30;;;;;;;21.15;62.40;99867.34;4173584;28;20040;-64
2022/08/16 01:40:26;;;;;;;5.25;2.65;;;;;;;21.11;62.57;99856.03;4165778;28;20496;-64
2022/08/16 01:42:29;;;;;;;5.47;2.63;;;;;;;20.93;62.79;99861.09;4161770;28;20048;-64
2022/08/16 01:44:33;;;;;;;4.77;3.07;;;;;;;20.96;62.76;99856.63;4167086;28;20033;-64
2022/08/16 01:46:42;;;;;;;4.35;2.67;;;;;;;20.95;62.82;99863.69;4158778;28;20280;-64
2022/08/16 01:48:55;;;;;;;4.03;3.03;;;;;;;21.04;62.64;99858.06;4148705;28;20503;-64
2022/08/16 01:51:00;;;;;;;3.50;2.50;;;;;;;21.02;62.65;99853.75;4169417;28;20037;-64
2022/08/16 01:53:18;;;;;;;3.97;2.65;;;;;;;20.93;62.86;99854.97;4181457;28;20033;-64
2022/08/16 01:55:47;;;;;;;6.40;2.55;;;;;;;20.86;62.96;99854.31;4147816;28;20096;-64
2022/08/16 01:57:57;;;;;;;3.30;2.67;;;;;;;20.84;63.19;99860.63;4160991;28;20037;-64
2022/08/16 02:00:04;;;;;;;4.45;2.88;;;;;;;20.82;63.10;99860.66;4148186;28;20097;-64
2022/08/16 02:02:15;;;;;;;4.07;2.60;;;;;;;20.76;63.49;99860.88;4177868;28;20045;-64
2022/08/16 02:04:32;;;;;;;3.90;2.67;;;;;;;20.80;63.49;99859.84;4162339;28;20450;-64
2022/08/16 02:06:58;;;;;;;7.65;3.60;;;;;;;20.77;63.15;99857.31;4164973;28;20041;-64
2022/08/16 02:09:02;;;;;;;5.00;3.60;;;;;;;20.83;63.03;99859.72;4164896;28;20079;-64
2022/08/16 02:11:09;;;;;;;6.05;3.60;;;;;;;20.81;63.50;99858.94;4180610;28;20071;-65
2022/08/16 02:13:12;;;;;;;5.97;4.40;;;;;;;20.80;63.33;99854.56;4165695;28;20045;-65
2022/08/16 02:15:20;;;;;;;4.43;3.10;;;;;;;20.81;63.45;99851.00;4186499;28;20044;-64
2022/08/16 02:17:27;;;;;;;6.30;3.22;;;;;;;20.84;63.18;99853.53;4165972;28;20150;-64
2022/08/16 02:19:33;;;;;;;4.85;3.13;;;;;;;20.84;63.13;99845.59;4165775;28;20058;-64
2022/08/16 02:21:58;;;;;;;3.28;2.47;;;;;;;20.91;63.02;99848.91;4162861;28;20495;-64
2022/08/16 02:24:11;;;;;;;4.18;2.50;;;;;;;20.94;63.14;99848.78;4177244;28;20037;-65
2022/08/16 02:26:35;;;;;;;4.53;2.80;;;;;;;20.99;62.66;99852.06;4189451;28;20040;-65
2022/08/16 02:28:38;;;;;;;4.13;2.75;;;;;;;21.11;62.41;99853.38;4167259;28;20045;-65
2022/08/16 02:30:49;;;;;;;4.07;2.55;;;;;;;21.16;62.57;99856.72;4177450;28;20056;-65
2022/08/16 02:32:54;;;;;;;3.65;2.70;;;;;;;21.21;62.46;99854.75;4172416;28;20041;-65
2022/08/16 02:34:58;;;;;;;;;;;;;;;21.11;62.44;99853.38;4172355;28;20041;-65
2022/08/16 02:37:02;;;;;;;4.60;2.75;;;;;;;21.13;62.48;99854.19;4166911;28;19959;-64
2022/08/16 02:39:10;;;;;;;4.53;2.55;;;;;;;21.14;62.36;99857.69;4179059;28;20381;-65
2022/08/16 02:41:16;;;;;;;7.43;4.00;;;;;;;21.15;62.75;99859.41;4164633;28;20079;-65
2022/08/16 02:43:21;;;;;;;5.97;4.35;;;;;;;21.06;62.78;99858.84;4164237;28;20049;-65
2022/08/16 02:45:29;;;;;;;6.22;4.53;;;;;;;20.83;63.46;99854.44;4166001;28;20080;-65
2022/08/16 02:47:33;;;;;;;3.90;3.17;;;;;;;20.67;63.97;99850.66;4169813;28;20582;-65
2022/08/16 02:49:56;;;;;;;4.25;3.15;;;;;;;20.58;64.21;99846.56;4167649;28;20541;-65
2022/08/16 02:52:19;;;;;;;5.85;3.47;;;;;;;20.71;64.09;99854.94;4177178;28;20048;-64
2022/08/16 02:54:33;;;;;;;4.67;3.03;;;;;;;20.77;63.94;99852.03;4164956;28;20067;-64
2022/08/16 02:56:39;;;;;;;3.88;3.00;;;;;;;20.88;63.53;99847.22;4163136;28;20824;-64
2022/08/16 02:58:44;;;;;;;5.85;3.25;;;;;;;21.00;63.05;99853.81;4178560;28;20049;-64
2022/08/16 03:00:47;;;;;;;6.47;4.05;;;;;;;20.98;62.89;99846.84;4177258;28;20040;-64
2022/08/16 03:02:54;;;;;;;;;;;;;;;20.90;63.14;99845.38;4167438;28;20033;-64
2022/08/16 03:04:58;;;;;;;4.43;3.28;;;;;;;20.92;62.91;99838.25;4149781;28;20189;-64
2022/08/16 03:07:01;;;;;;;6.43;3.20;;;;;;;20.92;62.81;99843.53;4166069;28;20046;-64
2022/08/16 03:09:13;;;;;;;4.97;3.67;;;;;;;21.02;62.63;99841.38;4180386;28;20124;-64
2022/08/16 03:11:22;;;;;;;4.15;3.25;;;;;;;21.03;62.74;99840.47;4146014;28;20042;-64
2022/08/16 03:13:26;;;;;;;5.88;3.83;;;;;;;21.01;62.80;99844.09;4164506;28;20034;-64
2022/08/16 03:15:31;;;;;;;4.72;3.35;;;;;;;20.97;62.74;99831.91;4163720;28;20384;-64
2022/08/16 03:17:35;;;;;;;4.20;3.47;;;;;;;20.99;62.71;99827.44;4170215;28;20107;-64
2022/08/16 03:19:55;;;;;;;4.65;3.35;;;;;;;20.97;62.84;99832.78;4180296;28;20545;-64
2022/08/16 03:22:06;;;;;;;4.72;3.45;;;;;;;21.03;62.70;99829.91;4169213;28;20057;-65
2022/08/16 03:24:11;;;;;;;5.55;3.88;;;;;;;21.06;62.65;99840.34;4163595;28;20037;-65
2022/08/16 03:26:32;;;;;;;6.75;4.50;;;;;;;20.90;63.18;99829.50;4163932;28;20053;-64
2022/08/16 03:28:36;;;;;;;4.80;3.10;;;;;;;20.84;63.25;99835.03;4173114;28;20072;-64
2022/08/16 03:30:42;;;;;;;3.60;2.70;;;;;;;20.84;63.15;99828.91;4176640;28;20123;-65
2022/08/16 03:32:48;;;;;;;6.60;4.07;;;;;;;20.91;63.21;99839.16;4165102;28;20061;-64
2022/08/16 03:34:54;;;;;;;4.70;3.80;;;;;;;20.82;63.41;99833.38;4179698;28;20033;-65
2022/08/16 03:36:59;;;;;;;6.20;3.92;;;;;;;20.73;63.85;99830.19;4168512;28;20049;-65
2022/08/16 03:39:02;;;;;;;5.10;3.53;;;;;;;20.57;64.27;99827.22;4178254;28;20572;-64
2022/08/16 03:41:06;;;;;;;5.60;3.57;;;;;;;20.59;64.27;99829.81;4161834;28;20522;-65
2022/08/16 03:43:32;;;;;;;4.63;3.33;;;;;;;20.81;63.69;99819.31;4182929;28;20298;-65
2022/08/16 03:45:57;;;;;;;4.68;2.70;;;;;;;20.89;63.36;99827.78;4167200;28;20040;-64
2022/08/16 03:48:05;;;;;;;5.80;3.35;;;;;;;20.99;62.99;99827.44;4165103;28;20037;-65
2022/08/16 03:50:09;;;;;;;4.22;3.13;;;;;;;21.02;63.17;99835.25;4161968;28;20033;-70
2022/08/16 03:52:29;;;;;;;6.30;3.28;;;;;;;21.20;62.64;99839.81;4153130;28;20037;-74
2022/08/16 03:54:35;;;;;;;5.00;3.28;;;;;;;21.38;62.15;99834.72;4171209;28;20128;-74
2022/08/16 03:56:39;;;;;;;4.15;3.47;;;;;;;21.48;61.77;99841.34;4179165;28;20053;-74
2022/08/16 03:59:01;;;;;;;5.03;3.63;;;;;;;21.49;61.60;99834.25;4172729;28;20045;-74
2022/08/16 04:01:12;;;;;;;6.13;3.13;;;;;;;21.47;61.54;99834.34;4160708;28;20042;-74
2022/08/16 04:03:18;;;;;;;5.07;3.05;;;;;;;21.50;61.39;99836.00;4157473;28;20053;-73
2022/08/16 04:05:24;;;;;;;9.30;3.80;;;;;;;21.51;61.68;99840.38;4164026;28;20547;-72
2022/08/16 04:07:32;;;;;;;5.13;3.28;;;;;;;21.50;61.38;99838.63;4162024;28;20064;-72
2022/08/16 04:09:37;;;;;;;6.93;4.15;;;;;;;21.49;61.51;99836.91;4161987;28;20030;-73
2022/08/16 04:11:42;;;;;;;5.53;3.40;;;;;;;;;;4162010;28;20113;-73
2022/08/16 04:13:46;;;;;;;6.63;3.78;;;;;;;21.41;61.61;99837.22;4158354;28;20034;-72
2022/08/16 04:16:16;;;;;;;3.80;2.97;;;;;;;21.40;61.64;99836.34;4169821;28;20499;-73
2022/08/16 04:18:35;;;;;;;4.78;3.28;;;;;;;21.42;61.50;99839.81;4165575;28;20047;-73
2022/08/16 04:20:38;;;;;;;;;;;;;;;21.35;61.76;99842.75;4162994;28;20517;-72
2022/08/16 04:22:43;;;;;;;4.80;3.22;;;;;;;21.36;61.84;99848.00;4178808;28;19964;-71
2022/08/16 04:24:50;;;;;;;7.10;4.15;;;;;;;21.38;61.72;99846.16;4161870;28;20048;-67
2022/08/16 04:26:59;;;;;;;6.88;4.57;;;;;;;21.17;62.54;99847.00;4160730;28;20056;-67
2022/08/16 04:29:03;;;;;;;6.97;5.13;;;;;;;20.84;63.42;99842.97;4173053;28;20131;-67
2022/08/16 04:31:24;;;;;;;8.60;4.82;;;;;;;20.46;64.88;99841.72;4161970;28;20061;-67
2022/08/16 04:33:33;;;;;;;6.78;4.55;;;;;;;20.30;65.40;99854.63;4160908;28;20034;-67
2022/08/16 04:35:37;;;;;;;7.93;5.70;;;;;;;20.21;65.61;99851.41;4190508;28;20094;-67
2022/08/16 04:37:42;;;;;;;6.07;4.57;;;;;;;20.07;66.20;99847.53;4146338;28;20073;-67
2022/08/16 04:39:52;;;;;;;7.93;5.57;;;;;;;19.95;66.56;99854.09;4145204;28;20038;-67
2022/08/16 04:41:59;;;;;;;6.95;4.80;;;;;;;19.86;66.95;99864.03;4161447;28;20041;-67
2022/08/16 04:44:13;;;;;;;5.45;4.47;;;;;;;19.80;67.08;99860.72;4161947;28;20041;-67
2022/08/16 04:46:39;;;;;;;6.00;4.43;;;;;;;19.70;66.91;99868.91;4167746;28;20487;-67
2022/08/16 04:49:03;;;;;;;10.13;5.18;;;;;;;19.69;67.85;99861.06;4179217;28;20052;-67
2022/08/16 04:51:07;;;;;;;10.65;5.00;;;;;;;19.68;67.63;99861.97;4146223;28;20050;-67
2022/08/16 04:53:21;;;;;;;5.07;4.40;;;;;;;19.63;68.40;99858.63;4161350;28;20045;-67
2022/08/16 04:55:30;;;;;;;6.07;4.55;;;;;;;19.62;68.26;99863.03;4157713;28;20040;-67
2022/08/16 04:57:40;;;;;;;6.10;4.15;;;;;;;19.65;68.31;99868.19;4162452;28;20037;-67
2022/08/16 04:59:46;;;;;;;6.63;4.85;;;;;;;19.68;68.33;99865.50;4162528;28;20455;-67
2022/08/16 05:01:55;;;;;;;9.75;5.18;;;;;;;19.74;67.94;99868.81;4144988;28;20065;-67
2022/08/16 05:04:01;;;;;;;8.32;4.80;;;;;;;19.70;67.87;99871.56;4162298;28;20530;-68
2022/08/16 05:06:11;;;;;;;9.80;5.32;;;;;;;19.70;67.60;99870.72;4146792;28;20108;-67
2022/08/16 05:08:14;;;;;;;6.50;4.60;;;;;;;19.73;67.98;99881.16;4146224;28;20520;-66
2022/08/16 05:10:46;;;;;;;7.38;5.18;;;;;;;19.73;67.71;99880.28;4146191;28;20038;-67
2022/08/16 05:12:49;;;;;;;9.43;5.32;;;;;;;19.74;67.46;99879.38;4153624;28;20036;-67
2022/08/16 05:14:54;;;;;;;7.32;5.78;;;;;;;19.75;67.12;99881.09;4145789;28;20566;-67
2022/08/16 05:17:06;;;;;;;4.95;4.32;;;;;;;19.72;67.48;99892.59;4162670;28;20087;-67
2022/08/16 05:19:09;;;;;;;7.35;4.95;;;;;;;19.70;67.28;99886.53;4162371;28;20439;-67
2022/08/16 05:21:37;;;;;;;6.88;4.95;;;;;;;19.68;67.35;99890.97;4145314;28;20049;-67
2022/08/16 05:23:44;;;;;;;9.73;4.63;;;;;;;19.67;67.60;99889.28;4189856;28;20067;-66
2022/08/16 05:26:01;;;;;;;7.13;4.50;;;;;;;19.73;66.92;99896.09;4165410;28;20050;-66
2022/08/16 05:28:04;;;;;;;9.13;5.22;;;;;;;19.77;66.59;99892.44;4181989;28;20140;-67
2022/08/16 05:30:11;;;;;;;6.43;4.55;;;;;;;19.78;66.39;99892.44;4165366;28;20053;-67
2022/08/16 05:32:36;;;;;;;5.60;4.40;;;;;;;19.87;66.42;99894.78;4163636;28;20105;-67
2022/08/16 05:34:49;;;;;;;6.50;4.70;;;;;;;19.78;67.23;99894.19;4168592;28;20088;-67
2022/08/16 05:36:56;;;;;;;6.20;4.68;;;;;;;19.79;67.39;99899.44;4168382;28;20046;-67
2022/08/16 05:39:05;;;;;;;6.32;4.90;;;;;;;19.84;67.04;99894.88;4149101;28;20046;-67
2022/08/16 05:41:08;;;;;;;7.32;4.75;;;;;;;19.90;67.01;99900.84;4155624;28;20430;-66
2022/08/16 05:43:17;;;;;;;5.95;4.68;;;;;;;19.90;66.76;99898.22;4164743;28;20402;-67
2022/08/16 05:45:20;;;;;;;6.60;5.53;;;;;;;19.91;66.79;99902.59;4164919;28;20136;-66
2022/08/16 05:47:29;;;;;;;6.82;4.55;;;;;;;19.95;66.48;99896.31;4165336;28;20051;-67
2022/08/16 05:49:35;;;;;;;8.07;5.57;;;;;;;20.02;66.13;99896.03;4165227;28;20434;-66
2022/08/16 05:51:45;;;;;;;7.78;4.20;;;;;;;20.04;66.04;99901.25;4180432;28;20029;-66
2022/08/16 05:53:52;;;;;;;8.07;4.28;;;;;;;20.14;65.72;99907.09;4159851;28;20144;-66
2022/08/16 05:55:57;;;;;;;6.45;4.93;;;;;;;20.21;65.58;99901.53;4148638;28;20045;-66
2022/08/16 05:58:00;;;;;;;5.93;4.60;;;;;;;20.29;65.54;99908.34;4156013;28;20107;-66
2022/08/16 06:00:06;;;;;;;9.50;5.28;;;;;;;20.37;65.50;99909.78;4164949;28;20045;-66
2022/08/16 06:02:14;;;;;;;6.35;4.97;;;;;;;20.45;65.77;99906.88;4164837;28;20037;-67
2022/08/16 06:04:20;;;;;;;5.85;4.18;;;;;;;20.44;65.22;99902.50;4163917;28;20072;-67
2022/08/16 06:06:43;;;;;;;5.28;3.90;;;;;;;20.52;65.60;99908.38;4148689;28;20543;-67
2022/08/16 06:09:02;;;;;;;7.85;4.47;;;;;;;20.62;65.58;99910.69;4164949;28;20043;-66
2022/08/16 06:11:05;;;;;;;7.13;4.00;;;;;;;20.61;65.69;99911.63;4181334;28;20071;-67
2022/08/16 06:13:15;;;;;;;5.50;3.95;;;;;;;20.63;65.60;99915.06;4147828;28;20053;-67
2022/08/16 06:15:22;;;;;;;5.70;4.60;;;;;;;20.66;65.38;99914.94;4163744;28;20499;-67
2022/08/16 06:17:25;;;;;;;8.10;4.50;;;;;;;20.65;65.42;99911.44;4155110;28;20134;-67
2022/08/16 06:19:47;;;;;;;7.05;4.38;;;;;;;20.62;65.18;99915.97;4148382;28;20381;-67
2022/08/16 06:21:54;;;;;;;6.40;4.95;;;;;;;20.57;64.92;99916.13;4148083;28;20100;-67
2022/08/16 06:23:58;;;;;;;6.60;5.03;;;;;;;20.66;65.14;99910.56;4147026;28;20038;-67
2022/08/16 06:26:05;;;;;;;9.05;5.72;;;;;;;20.78;64.79;99913.66;4164652;28;20097;-67
2022/08/16 06:28:12;;;;;;;7.90;4.72;;;;;;;20.81;64.49;99916.19;4164628;28;20111;-67
2022/08/16 06:30:35;;;;;;;5.75;4.30;;;;;;;20.74;64.67;99915.56;4165626;28;20048;-67
2022/08/16 06:32:47;;;;;;;9.52;5.53;;;;;;;20.72;64.35;99923.53;4163755;28;20120;-67
2022/08/16 06:34:53;;;;;;;9.23;5.22;;;;;;;20.78;64.24;99919.81;4159017;28;20034;-67
2022/08/16 06:37:08;;;;;;;6.13;4.55;;;;;;;20.91;64.10;99922.88;4131933;28;20118;-67
2022/08/16 06:39:12;;;;;;;5.80;4.38;;;;;;;20.92;63.82;99925.47;4148058;28;20381;-66
2022/08/16 06:41:42;;;;;;;6.75;4.65;;;;;;;21.01;63.77;99931.28;4147615;28;20255;-67
2022/08/16 06:43:55;;;;;;;5.93;4.50;;;;;;;21.07;63.43;99923.13;4161781;28;20067;-67
2022/08/16 06:46:08;;;;;;;6.30;4.65;;;;;;;21.08;63.60;99933.69;4174103;28;20183;-67
2022/08/16 06:48:11;;;;;;;7.45;4.38;;;;;;;21.10;63.56;99938.91;4147824;28;20045;-67
2022/08/16 06:50:20;;;;;;;6.85;5.22;;;;;;;21.17;63.61;99932.44;4163332;28;20044;-67
2022/08/16 06:52:35;;;;;;;6.95;4.68;;;;;;;21.32;63.51;99936.28;4136863;28;20451;-67
2022/08/16 06:54:58;;;;;;;6.47;4.65;;;;;;;21.32;63.80;99932.78;4148181;28;20121;-67
2022/08/16 06:57:01;;;;;;;7.15;5.30;;;;;;;21.31;63.09;99936.34;4131571;28;20054;-67
2022/08/16 06:59:06;;;;;;;7.18;5.18;;;;;;;21.27;63.06;99939.13;4147315;28;20042;-67
2022/08/16 07:01:20;;;;;;;9.63;5.43;;;;;;;21.39;62.83;99937.78;4156397;28;20041;-66
2022/08/16 07:03:43;;;;;;;8.90;5.63;;;;;;;21.37;62.90;99936.97;4163825;28;20049;-67
2022/08/16 07:06:00;;;;;;;6.88;5.13;;;;;;;21.38;62.51;99940.47;4163913;28;20038;-66
2022/08/16 07:08:11;;;;;;;8.85;4.90;;;;;;;21.42;62.31;99942.06;4163884;28;20064;-67
2022/08/16 07:10:16;;;;;;;7.60;5.13;;;;;;;21.49;62.46;99938.25;4162955;28;20046;-67
2022/08/16 07:12:19;;;;;;;6.77;4.90;;;;;;;21.31;62.86;99945.13;4161980;28;20037;-66
2022/08/16 07:14:22;;;;;;;8.35;5.07;;;;;;;21.27;63.17;99944.41;4154401;28;20045;-67
2022/08/16 07:16:32;;;;;;;6.90;4.70;;;;;;;21.39;63.35;99947.47;4131065;28;20137;-67
2022/08/16 07:18:35;;;;;;;6.85;4.70;;;;;;;21.37;63.45;99939.59;4147375;28;20496;-67
2022/08/16 07:20:39;;;;;;;8.27;4.40;;;;;;;21.52;63.45;99939.97;4175379;28;20040;-67
2022/08/16 07:22:51;;;;;;;9.38;5.50;;;;;;;21.49;63.33;99948.00;4150384;28;20320;-67
2022/08/16 07:25:18;;;;;;;9.57;5.90;;;;;;;21.53;63.13;99939.91;4131210;28;20108;-66
2022/08/16 07:27:24;;;;;;;10.02;5.65;;;;;;;21.59;62.45;99939.66;4131043;28;20443;-67
2022/08/16 07:29:29;;;;;;;7.53;5.38;;;;;;;21.68;62.43;99938.41;4162246;28;20045;-67
2022/08/16 07:31:34;;;;;;;7.80;5.60;;;;;;;21.75;62.42;99939.91;4161176;28;20059;-66
2022/08/16 07:33:44;;;;;;;7.80;5.25;;;;;;;21.75;62.39;99936.41;4151321;28;20094;-67
2022/08/16 07:36:02;;;;;;;9.25;5.55;;;;;;;21.82;62.33;99939.66;4147154;28;20038;-67
2022/08/16 07:38:08;;;;;;;9.30;6.00;;;;;;;21.77;62.17;99942.47;4148961;28;20127;-67
2022/08/16 07:40:28;;;;;;;8.23;5.82;;;;;;;21.78;62.31;99938.91;4153985;28;20037;-67
2022/08/16 07:42:51;;;;;;;7.65;6.18;;;;;;;21.93;62.12;99933.00;4162869;28;20033;-67
2022/08/16 07:44:56;;;;;;;8.75;6.72;;;;;;;22.20;61.08;99924.81;4146120;28;20132;-66
2022/08/16 07:46:59;;;;;;;8.80;5.50;;;;;;;22.11;61.27;99935.81;4162100;28;20044;-66
2022/08/16 07:49:04;;;;;;;7.50;6.00;;;;;;;22.18;61.09;99931.97;4173604;28;20048;-67
2022/08/16 07:51:13;;;;;;;7.57;5.93;;;;;;;22.26;60.55;99934.28;4163244;28;20498;-67
2022/08/16 07:53:17;;;;;;;6.47;5.20;;;;;;;22.23;61.10;99943.22;4163102;28;20029;-67
2022/08/16 07:55:20;;;;;;;6.47;5.20;;;;;;;22.18;61.20;99936.41;4163383;28;20041;-67
2022/08/16 07:57:25;;;;;;;10.65;4.90;;;;;;;22.27;61.38;99942.19;4146920;28;20050;-67
2022/08/16 07:59:29;;;;;;;6.93;4.68;;;;;;;22.45;61.33;99956.44;4146028;28;20508;-67
2022/08/16 08:01:51;;;;;;;6.05;5.03;;;;;;;22.69;60.21;99939.53;4133978;28;20050;-67
2022/08/16 08:03:57;;;;;;;6.57;4.97;;;;;;;22.61;60.41;99946.03;4130635;28;20078;-67
2022/08/16 08:06:07;;;;;;;7.25;5.68;;;;;;;22.58;59.88;99935.56;4130516;28;20550;-67
2022/08/16 08:08:13;;;;;;;9.90;4.90;;;;;;;22.61;59.90;99929.28;4151023;28;20049;-67
2022/08/16 08:10:37;;;;;;;6.15;5.15;;;;;;;22.77;59.38;99940.06;4174139;28;20402;-67
2022/08/16 08:12:43;;;;;;;9.63;5.75;;;;;;;22.87;58.84;99951.09;4146407;28;20061;-68
2022/08/16 08:14:48;;;;;;;7.82;5.40;;;;;;;23.04;58.24;99947.69;4162916;28;20034;-67
2022/08/16 08:16:52;;;;;;;;;;;;;;;22.97;58.01;99942.66;4147052;28;20500;-66
2022/08/16 08:19:11;;;;;;;6.60;4.93;;;;;;;23.01;58.26;99948.69;4162248;28;20468;-67
2022/08/16 08:21:18;;;;;;;8.10;4.97;;;;;;;23.06;57.75;99953.78;4162811;28;20059;-67
2022/08/16 08:23:30;;;;;;;8.60;4.60;;;;;;;23.11;58.18;99951.81;4162696;28;20498;-67
2022/08/16 08:25:33;;;;;;;7.57;4.82;;;;;;;23.20;57.72;99956.69;4162935;28;20045;-67
2022/08/16 08:27:58;;;;;;;8.30;5.13;;;;;;;23.14;57.55;99959.63;4162148;28;20124;-67
2022/08/16 08:30:01;;;;;;;10.77;5.00;;;;;;;23.16;58.00;99960.44;4162847;28;20443;-68
2022/08/16 08:32:27;;;;;;;8.02;4.97;;;;;;;23.14;57.63;99963.16;4146279;28;20045;-67
2022/08/16 08:34:50;;;;;;;8.95;4.70;;;;;;;23.23;57.87;99959.22;4146506;28;20046;-66
2022/08/16 08:36:54;;;;;;;6.97;4.95;;;;;;;23.33;57.39;99954.31;4151495;28;20033;-66
2022/08/16 08:39:14;;;;;;;6.30;4.60;;;;;;;23.35;56.87;99952.47;4162777;28;20045;-67
2022/08/16 08:41:17;;;;;;;7.78;5.40;;;;;;;23.41;56.61;99951.28;4164197;28;20495;-67
2022/08/16 08:43:29;;;;;;;9.10;5.28;;;;;;;23.46;56.80;99950.16;4160680;28;20033;-67
2022/08/16 08:45:43;;;;;;;6.80;4.90;;;;;;;23.62;56.58;99960.91;4146538;28;20123;-66
2022/08/16 08:47:51;;;;;;;9.32;5.47;;;;;;;23.69;56.55;99958.81;4146497;28;20038;-67
2022/08/16 08:50:01;;;;;;;7.40;4.82;;;;;;;23.75;56.30;99965.63;4146494;28;20443;-67
2022/08/16 08:52:07;;;;;;;8.45;5.55;;;;;;;23.76;56.15;99965.56;4158750;28;20044;-67
2022/08/16 08:54:13;;;;;;;10.00;6.45;;;;;;;23.91;55.17;99963.13;4154942;28;20041;-67
2022/08/16 08:56:31;;;;;;;12.43;6.10;;;;;;;23.96;54.84;99964.63;4131194;28;20038;-66
2022/08/16 08:58:48;;;;;;;7.70;5.45;;;;;;;23.85;55.53;99957.13;4133489;28;20373;-66
2022/08/16 09:01:10;;;;;;;7.97;4.90;;;;;;;23.92;55.41;99957.72;4165159;28;20056;-66
2022/08/16 09:03:14;;;;;;;8.02;5.25;;;;;;;24.03;55.16;99951.88;4149404;28;20492;-66
2022/08/16 09:05:20;;;;;;;9.82;4.93;;;;;;;24.10;55.15;99960.41;4133188;28;20501;-66
2022/08/16 09:07:26;;;;;;;5.90;4.22;;;;;;;24.19;55.29;99957.28;4149662;28;20049;-66
2022/08/16 09:09:32;;;;;;;6.65;5.18;;;;;;;24.28;54.94;99964.78;4154516;28;20041;-66
2022/08/16 09:11:43;;;;;;;7.13;5.28;;;;;;;24.27;54.83;99963.06;4165381;28;20045;-67
2022/08/16 09:13:53;;;;;;;10.00;5.43;;;;;;;24.34;54.25;99964.47;4165723;28;20430;-66
2022/08/16 09:15:56;;;;;;;6.82;5.45;;;;;;;24.34;53.76;99960.94;4165666;28;20107;-66
2022/08/16 09:18:00;;;;;;;9.88;6.43;;;;;;;24.55;53.38;99964.31;4165803;28;20392;-66
2022/08/16 09:20:24;;;;;;;9.35;5.75;;;;;;;24.47;54.15;99963.84;4164886;28;20045;-66
2022/08/16 09:22:28;;;;;;;9.73;6.40;;;;;;;24.46;53.99;99962.97;4148751;28;20101;-67
2022/08/16 09:24:34;;;;;;;10.05;5.78;;;;;;;24.52;53.64;99954.69;4149088;28;20080;-67
2022/08/16 09:26:58;;;;;;;6.93;4.97;;;;;;;24.52;53.83;99961.81;4165566;28;20038;-66
2022/08/16 09:29:03;;;;;;;8.20;5.30;;;;;;;24.59;53.96;99960.59;4164934;28;20041;-66
2022/08/16 09:31:25;;;;;;;7.25;4.63;;;;;;;24.70;54.04;99955.53;4164029;28;20494;-67
2022/08/16 09:33:31;;;;;;;7.35;6.32;;;;;;;24.75;53.04;99958.00;4149934;28;20042;-67
2022/08/16 09:35:41;;;;;;;9.05;5.40;;;;;;;24.80;52.86;99960.41;4150359;28;20033;-67
2022/08/16 09:37:44;;;;;;;9.15;6.10;;;;;;;24.93;52.34;99958.78;4150824;28;20042;-66
2022/08/16 09:40:04;;;;;;;6.72;5.30;;;;;;;24.95;52.18;99954.25;4163999;28;20518;-66
2022/08/16 09:42:28;;;;;;;8.10;5.55;;;;;;;25.01;51.84;99959.22;4157480;28;20072;-66
2022/08/16 09:44:32;;;;;;;11.05;6.40;;;;;;;25.09;51.86;99962.34;4163996;28;20475;-67
2022/08/16 09:46:56;;;;;;;7.73;6.27;;;;;;;25.37;51.08;99955.53;4156268;28;20041;-66
2022/08/16 09:48:59;;;;;;;10.63;6.40;;;;;;;25.57;51.23;99950.91;4160221;28;20052;-67
2022/08/16 09:51:06;;;;;;;7.65;4.55;;;;;;;25.60;51.08;99956.91;4148928;28;20049;-66
2022/08/16 09:53:15;;;;;;;12.23;5.20;;;;;;;25.49;50.95;99959.31;4148397;28;20053;-67
2022/08/16 09:55:18;;;;;;;7.55;4.70;;;;;;;25.48;50.70;99962.06;4150046;28;20128;-67
2022/08/16 09:57:27;;;;;;;9.25;5.15;;;;;;;25.50;50.69;99961.03;4163855;28;20037;-67
2022/08/16 09:59:37;;;;;;;7.47;5.32;;;;;;;25.76;50.16;99962.22;4155191;28;20385;-67
2022/08/16 10:01:46;;;;;;;7.50;5.65;;;;;;;26.05;48.97;99949.06;4162229;28;20045;-67
2022/08/16 10:03:51;;;;;;;9.45;5.25;;;;;;;26.10;50.06;99949.63;4151595;28;20444;-67
2022/08/16 10:06:05;;;;;;;9.77;5.15;;;;;;;26.18;49.27;99956.31;4155809;28;20095;-67
2022/08/16 10:08:15;;;;;;;9.68;4.90;;;;;;;26.35;48.54;99948.19;4163392;28;20103;-67
2022/08/16 10:10:28;;;;;;;6.90;5.05;;;;;;;26.37;48.46;99948.97;4165931;28;20049;-67
2022/08/16 10:15:00;;;;;;;7.57;5.18;;;;;;;26.24;48.75;99947.94;4165967;28;20020;-67
2022/08/16 10:17:05;;;;;;;6.90;4.20;;;;;;;26.29;48.47;99945.88;4165160;28;20529;-67
2022/08/16 10:19:08;;;;;;;;;;;;;;;26.25;49.06;99947.00;4159099;28;20069;-67